Orange City, FL (32763)

11:42 PM EDT on September 02, 2014 (GMT -0400)
Saxon Woods | Change Station
CLOSE
Current Station
Personal Weather Station
Location: De Bary, FL
Elevation: 88 ft
Nearby Weather Stations

Elev 88 ft 28.91 °N, 81.30 °W | Updated 7 seconds ago

Partly Cloudy
Partly Cloudy
78.1 °F
Feels Like 81 °F
N
0.0
Wind Variable Wind from ESE
Gusts 0.0 mph

Today
High -- | Low -- °F
--% Chance of Precip.
Yesterday
High -- | Low -- °F
Precip. -- in
7:03 AM 7:45 PM
First Quarter, 58% visible
Pressure 30.06 in
Visibility 10.0 miles
Clouds Clear
Heat Index 81 °F
Dew Point 73 °F
Humidity 84%
Rainfall 0.00 in
Snow Depth Not available.
UV 0 out of 12
Pollen 8.00 out of 12
Air Quality Not available.
Flu Activity Not available.
METAR KDED 030335Z AUTO 00000KT 10SM CLR 25/23 A3006 RMK AO1

More Conditions Fewer Conditions

Pressure 30.06 in
Visibility 10.0 miles
Clouds Clear
Heat Index 81 °F
Dew Point 73 °F
Humidity 84%
Rainfall 0.00 in
Snow Depth Not available.
UV 0 out of 12
Pollen 8.00 out of 12
Air Quality Not available.
Flu Activity Not available.
METAR KDED 030335Z AUTO 00000KT 10SM CLR 25/23 A3006 RMK AO1

More Conditions Fewer Conditions

10-Day Weather Forecast

Almanac

Astronomy

Sep. 02, 2014 Rise Set
Actual Time 7:03 AM EDT 7:45 PM EDT
Civil Twilight 6:39 AM EDT 8:09 PM EDT
Nautical Twilight 6:11 AM EDT 8:37 PM EDT
Astronomical Twilight 5:42 AM EDT 9:06 PM EDT
Moon 2:13 PM EDT (9/2) 12:18 AM EDT (9/2)
Length of Visible Light 13h 30m
Length of Day
12h 42m
Tomorrow will be 1m 40s shorter.
First Quarter, 58% of the Moon is Illuminated
Today
First Quarter
Sep 8
Full
Sep 15
Last Quarter
Sep 24
New
Oct 1
First Quarter

Today's Extremes

State Highs State Lows

Community

WunderPhotos

Upload Photos

1,749,867 photos uploaded!

WunderBlogs® & News

Nearby

Snow Depth

Station Depth Elevation
No new snow has been reported.

Earthquake Activity

City Distance Mag. Time & Date
No recent earthquake activity has been reported nearby.
Minimum magnitude displayed is 2.5.

Coastal Water Temperatures

Place Temperature
Trident Pier, FL 87.1 °F
Mayport (Bar Pilots Dock), FL 86.0 °F
Fernandina Beach, FL 88.0 °F
McKay Bay Entrance, FL 89.1 °F

Nearby Weather Stations